Time;durP1;ratioP1;P1;durP2;ratioP2;P2;SDS_P1;SDS_P2;PMS_P1;PMS_P2;Temp;Humidity;BMP_temperature;BMP_pressure;BME280_temperature;BME280_humidity;BME280_pressure;Samples;Min_cycle;Max_cycle;Signal;HPM_P1;HPM_P2
2022/12/27 00:02:23;;;;;;;1.88;1.00;;;3.70;91.40;;;;;;5116277;28;20398;-75
2022/12/27 00:04:49;;;;;;;2.05;1.10;;;3.70;91.40;;;;;;5134659;28;20466;-75
2022/12/27 00:07:14;;;;;;;3.20;1.33;;;3.70;91.40;;;;;;5116243;28;20044;-75
2022/12/27 00:09:40;;;;;;;3.00;1.17;;;3.60;91.40;;;;;;5134043;28;20035;-76
2022/12/27 00:12:06;;;;;;;3.08;1.40;;;3.60;91.40;;;;;;5098895;28;20058;-75
2022/12/27 00:14:32;;;;;;;3.15;1.25;;;3.70;91.50;;;;;;5134067;28;20084;-75
2022/12/27 00:16:57;;;;;;;2.65;1.27;;;3.80;91.40;;;;;;5115894;28;20040;-75
2022/12/27 00:19:23;;;;;;;2.20;1.17;;;3.70;91.50;;;;;;5134410;28;20038;-75
2022/12/27 00:21:49;;;;;;;1.60;1.00;;;3.70;91.50;;;;;;5098448;28;20119;-75
2022/12/27 00:24:14;;;;;;;2.40;1.20;;;3.70;91.50;;;;;;5115461;28;20043;-75
2022/12/27 00:26:40;;;;;;;2.13;1.23;;;3.70;91.50;;;;;;5134026;28;20532;-75
2022/12/27 00:29:06;;;;;;;2.85;1.00;;;3.70;91.50;;;;;;5115622;28;20031;-75
2022/12/27 00:31:33;;;;;;;1.70;0.95;;;3.70;91.50;;;;;;5133871;28;20403;-75
2022/12/27 00:34:01;;;;;;;3.03;1.00;;;3.60;91.50;;;;;;5115267;28;20057;-75
2022/12/27 00:36:28;;;;;;;2.22;1.00;;;3.70;91.60;;;;;;5116149;28;20441;-75
2022/12/27 00:38:57;;;;;;;1.52;0.90;;;3.60;91.50;;;;;;5134158;28;20085;-76
2022/12/27 00:41:22;;;;;;;2.03;0.90;;;3.60;91.60;;;;;;5098789;28;20032;-75
2022/12/27 00:43:49;;;;;;;1.55;0.90;;;3.60;91.60;;;;;;5115135;28;20402;-76
2022/12/27 00:46:15;;;;;;;2.53;1.10;;;3.60;91.60;;;;;;5133740;28;20031;-76
2022/12/27 00:48:41;;;;;;;1.35;1.10;;;3.60;91.60;;;;;;5115091;28;20045;-76
2022/12/27 00:51:12;;;;;;;2.08;0.80;;;3.60;91.60;;;;;;5098118;28;20042;-75
2022/12/27 00:53:38;;;;;;;2.42;1.13;;;3.70;91.60;;;;;;5115221;28;20538;-75
2022/12/27 00:56:07;;;;;;;2.90;0.80;;;3.70;91.60;;;;;;5133414;28;20058;-75
2022/12/27 00:58:33;;;;;;;0.98;0.75;;;3.70;91.60;;;;;;5115414;28;20035;-75
2022/12/27 01:01:06;;;;;;;1.20;0.90;;;3.70;91.60;;;;;;5133280;28;20096;-75
2022/12/27 01:03:31;;;;;;;2.85;1.17;;;3.60;91.60;;;;;;5098018;28;20379;-75
2022/12/27 01:06:10;;;;;;;1.95;1.10;;;3.60;91.60;;;;;;5097783;28;20046;-75
2022/12/27 01:08:36;;;;;;;4.70;1.10;;;3.60;91.60;;;;;;5114757;28;20062;-75
2022/12/27 01:11:02;;;;;;;1.45;1.10;;;3.60;91.90;;;;;;5097666;28;20378;-75
2022/12/27 01:13:29;;;;;;;1.60;1.08;;;3.60;91.60;;;;;;5133433;28;20084;-75
2022/12/27 01:15:54;;;;;;;2.10;0.80;;;3.60;91.70;;;;;;5114636;28;20047;-75
2022/12/27 01:18:20;;;;;;;3.45;1.30;;;3.60;91.70;;;;;;5114724;28;20451;-76
2022/12/27 01:20:46;;;;;;;3.22;1.25;;;3.60;91.70;;;;;;5132872;28;20092;-76
2022/12/27 01:23:11;;;;;;;2.40;1.05;;;3.60;91.70;;;;;;5114487;28;20039;-76
2022/12/27 01:25:37;;;;;;;3.65;1.30;;;3.60;91.70;;;;;;5133046;28;20073;-76
2022/12/27 01:28:03;;;;;;;4.60;1.40;;;3.60;91.70;;;;;;5114403;27;20067;-73
2022/12/27 01:30:28;;;;;;;3.13;1.30;;;3.60;91.70;;;;;;5117681;28;20050;-73
2022/12/27 01:32:54;;;;;;;1.88;1.10;;;3.60;91.70;;;;;;5117964;28;20061;-73
2022/12/27 01:35:20;;;;;;;2.58;1.27;;;3.60;91.70;;;;;;5118035;28;20046;-73
2022/12/27 01:37:46;;;;;;;2.80;1.35;;;3.60;91.70;;;;;;5117963;28;20118;-76
2022/12/27 01:40:12;;;;;;;1.73;1.20;;;3.60;91.70;;;;;;5136500;28;20066;-76
2022/12/27 01:45:22;;;;;;;1.58;1.20;;;3.60;91.70;;;;;;5120054;28;20047;-73
2022/12/27 01:48:04;;;;;;;2.58;1.23;;;3.50;91.70;;;;;;5117701;28;20039;-75
2022/12/27 01:50:45;;;;;;;1.85;1.02;;;3.50;91.70;;;;;;5101508;28;20050;-75
2022/12/27 01:53:18;;;;;;;3.22;1.33;;;3.60;91.70;;;;;;5136182;28;20080;-76
2022/12/27 01:56:01;;;;;;;1.33;0.98;;;3.60;91.80;;;;;;5136139;28;20047;-75
2022/12/27 01:58:34;;;;;;;1.83;1.10;;;3.50;91.80;;;;;;5136269;28;20435;-76
2022/12/27 02:01:00;;;;;;;1.30;1.00;;;3.50;91.80;;;;;;5117645;28;20485;-75
2022/12/27 02:03:33;;;;;;;1.50;1.10;;;3.50;91.80;;;;;;5136184;28;20046;-76
2022/12/27 02:06:01;;;;;;;2.50;1.13;;;3.60;91.80;;;;;;5135971;28;20482;-76
2022/12/27 02:08:45;;;;;;;1.83;1.20;;;3.50;91.80;;;;;;5135919;28;20047;-73
2022/12/27 02:11:12;;;;;;;1.45;0.90;;;3.60;91.80;;;;;;5135958;28;20049;-76
2022/12/27 02:13:41;;;;;;;2.97;1.17;;;3.60;91.80;;;;;;5136326;28;20466;-75
2022/12/27 02:16:14;;;;;;;1.33;0.95;;;3.70;91.80;;;;;;5100433;28;20081;-75
2022/12/27 02:18:40;;;;;;;1.70;1.13;;;3.70;91.80;;;;;;5100915;28;20074;-76
2022/12/27 02:21:44;;;;;;;2.08;1.20;;;3.80;91.80;;;;;;5135862;28;20035;-73
2022/12/27 02:24:37;;;;;;;1.45;1.08;;;3.80;92.00;;;;;;5135483;28;20072;-75
2022/12/27 02:27:24;;;;;;;2.47;1.27;;;3.90;91.70;;;;;;5136236;28;20174;-75
2022/12/27 02:29:57;;;;;;;3.83;1.40;;;4.00;91.60;;;;;;5118738;28;20468;-75
2022/12/27 02:32:32;;;;;;;2.42;1.20;;;4.00;91.50;;;;;;5135733;28;20084;-75
2022/12/27 02:35:21;;;;;;;1.85;1.23;;;4.10;91.50;;;;;;5116919;28;20043;-75
2022/12/27 02:37:52;;;;;;;2.65;1.20;;;4.10;91.50;;;;;;5119916;28;20057;-75
2022/12/27 02:54:52;;;;;;;1.40;1.00;;;4.20;91.50;;;;;;5135190;28;20082;-75
2022/12/27 02:57:42;;;;;;;1.88;0.95;;;4.10;91.50;;;;;;5116566;28;20049;-76
2022/12/27 03:03:20;;;;;;;1.42;0.93;;;4.00;91.70;;;;;;5118381;28;20058;-75
2022/12/27 03:09:05;;;;;;;3.00;1.10;;;3.90;91.80;;;;;;5121826;28;20414;-75
2022/12/27 03:17:39;;;;;;;1.17;0.85;;;4.00;91.80;;;;;;5119900;28;20043;-75
2022/12/27 03:25:36;;;;;;;1.30;0.85;;;3.90;91.80;;;;;;5134722;28;20062;-75
2022/12/27 03:34:30;;;;;;;0.80;0.80;;;4.00;91.90;;;;;;5119450;28;20108;-75
2022/12/27 03:39:32;;;;;;;1.17;0.75;;;4.00;91.90;;;;;;5102917;28;20039;-75
2022/12/27 03:44:46;;;;;;;1.92;0.98;;;4.10;91.90;;;;;;5134404;28;20509;-76
2022/12/27 03:47:26;;;;;;;1.42;1.00;;;4.20;91.80;;;;;;5116010;28;20039;-75
2022/12/27 03:50:21;;;;;;;2.88;1.30;;;4.20;91.70;;;;;;5117327;28;20050;-76
2022/12/27 03:52:50;;;;;;;2.03;1.20;;;4.20;91.70;;;;;;5133327;27;20099;-75
2022/12/27 03:55:16;;;;;;;2.67;1.27;;;4.20;91.70;;;;;;5082356;28;20046;-75
2022/12/27 03:57:42;;;;;;;1.42;1.10;;;4.20;91.70;;;;;;5098910;28;20043;-75
2022/12/27 04:00:09;;;;;;;2.45;1.30;;;4.20;91.80;;;;;;5134552;28;20374;-75
2022/12/27 04:02:35;;;;;;;1.65;1.02;;;4.10;91.80;;;;;;5133946;28;20043;-75
2022/12/27 04:05:00;;;;;;;2.92;1.20;;;4.10;91.80;;;;;;5134544;28;20042;-75
2022/12/27 04:07:26;;;;;;;2.88;1.30;;;4.20;91.90;;;;;;5134290;28;20042;-75
2022/12/27 04:36:29;;;;;;;0.95;0.73;;;3.80;92.10;;;;;;5117611;28;20035;-75
2022/12/27 04:38:54;;;;;;;2.42;1.10;;;3.80;92.10;;;;;;5115227;28;20046;-75
2022/12/27 04:57:23;;;;;;;3.63;1.42;;;3.70;92.10;;;;;;5133523;28;20043;-75
2022/12/27 05:02:33;;;;;;;2.95;1.20;;;3.80;92.20;;;;;;5117790;27;20047;-75
2022/12/27 05:04:58;;;;;;;2.75;1.20;;;3.80;92.10;;;;;;5132248;28;20066;-75
2022/12/27 05:15:24;;;;;;;0.95;0.80;;;3.80;92.20;;;;;;5102448;28;20118;-75
2022/12/27 05:17:50;;;;;;;1.77;1.08;;;3.80;92.20;;;;;;5114716;28;20066;-75
2022/12/27 05:20:16;;;;;;;1.80;1.13;;;3.70;92.20;;;;;;5114967;28;20092;-75
2022/12/27 05:25:33;;;;;;;2.83;1.40;;;3.70;92.20;;;;;;5102969;28;20036;-75
2022/12/27 05:27:59;;;;;;;3.40;1.13;;;3.80;92.20;;;;;;5132918;28;20471;-75
2022/12/27 05:30:25;;;;;;;2.83;1.60;;;3.80;92.20;;;;;;5114898;28;20074;-75
2022/12/27 05:32:55;;;;;;;3.17;1.15;;;3.80;92.20;;;;;;5132870;28;20066;-75
2022/12/27 05:35:20;;;;;;;2.58;1.27;;;3.80;92.20;;;;;;5133341;28;20042;-75
2022/12/27 05:37:46;;;;;;;3.25;1.38;;;3.80;92.20;;;;;;5097512;28;20047;-75
2022/12/27 05:40:12;;;;;;;1.45;1.02;;;3.80;92.20;;;;;;5133318;28;20031;-75
2022/12/27 05:42:38;;;;;;;1.60;1.02;;;3.80;92.20;;;;;;5133263;28;20036;-75
2022/12/27 05:45:04;;;;;;;2.25;1.10;;;3.80;92.20;;;;;;5132981;28;20542;-75
2022/12/27 05:47:29;;;;;;;1.88;1.10;;;3.80;92.20;;;;;;5133052;28;20035;-75
2022/12/27 05:49:55;;;;;;;2.47;1.10;;;3.80;92.20;;;;;;5097532;28;20394;-75
2022/12/27 05:52:21;;;;;;;2.00;0.95;;;3.80;92.20;;;;;;5133190;28;20035;-75
2022/12/27 05:54:46;;;;;;;2.67;1.00;;;3.80;92.30;;;;;;5097574;28;20070;-75
2022/12/27 05:57:12;;;;;;;1.38;1.08;;;3.80;92.30;;;;;;5132844;28;20039;-74
2022/12/27 05:59:37;;;;;;;1.48;1.00;;;3.80;92.30;;;;;;5133083;28;20039;-75
2022/12/27 06:02:03;;;;;;;1.38;0.77;;;3.80;92.30;;;;;;5114216;28;20125;-75
2022/12/27 06:04:29;;;;;;;1.45;1.00;;;3.80;92.30;;;;;;5114875;28;20035;-75
2022/12/27 06:06:54;;;;;;;1.63;0.85;;;3.80;92.30;;;;;;5097338;28;20092;-74
2022/12/27 06:09:20;;;;;;;1.35;0.90;;;3.70;92.30;;;;;;5114127;28;20059;-75
2022/12/27 06:11:45;;;;;;;1.05;0.70;;;3.70;92.40;;;;;;5132373;28;20043;-75
2022/12/27 06:14:12;;;;;;;1.63;0.88;;;3.70;92.40;;;;;;5097152;27;20043;-75
2022/12/27 06:16:37;;;;;;;2.15;0.73;;;3.70;92.40;;;;;;5135532;28;20082;-75
2022/12/27 06:19:03;;;;;;;0.70;0.50;;;3.60;92.40;;;;;;5136029;28;20071;-75
2022/12/27 06:21:29;;;;;;;1.85;0.82;;;3.70;92.50;;;;;;5117542;28;20039;-75
2022/12/27 06:23:54;;;;;;;1.02;0.63;;;3.60;92.50;;;;;;5118123;28;20043;-75
2022/12/27 06:26:22;;;;;;;0.90;0.60;;;3.70;92.50;;;;;;5117500;28;20043;-75
2022/12/27 06:28:49;;;;;;;1.13;0.63;;;3.70;92.50;;;;;;5117503;28;20039;-75
2022/12/27 06:31:16;;;;;;;1.55;0.60;;;3.70;92.50;;;;;;5117442;28;20492;-75
2022/12/27 06:33:41;;;;;;;1.98;0.55;;;3.60;92.50;;;;;;5101125;28;20131;-75
2022/12/27 06:36:09;;;;;;;1.90;0.60;;;3.70;92.50;;;;;;5117492;28;20493;-75
2022/12/27 06:38:36;;;;;;;2.67;0.63;;;3.60;92.50;;;;;;5135897;28;20450;-75
2022/12/27 06:41:03;;;;;;;2.53;0.90;;;3.60;92.50;;;;;;5135989;28;20050;-75
2022/12/27 06:43:29;;;;;;;1.38;0.55;;;3.70;92.50;;;;;;5117164;28;20039;-75
2022/12/27 06:45:57;;;;;;;1.42;0.55;;;3.60;92.50;;;;;;5100308;28;20041;-75
2022/12/27 06:48:23;;;;;;;1.15;0.40;;;3.60;92.50;;;;;;5135510;28;20085;-75
2022/12/27 06:50:48;;;;;;;0.98;0.50;;;3.60;92.50;;;;;;5117191;28;20486;-75
2022/12/27 06:53:14;;;;;;;1.02;0.70;;;3.60;92.60;;;;;;5135409;28;20466;-75
2022/12/27 06:55:40;;;;;;;1.13;0.65;;;3.60;92.50;;;;;;5135482;28;20039;-75
2022/12/27 06:58:05;;;;;;;1.33;0.70;;;3.60;92.50;;;;;;5117216;28;20039;-75
2022/12/27 07:00:31;;;;;;;1.35;0.57;;;3.60;92.50;;;;;;5135580;28;20039;-75
2022/12/27 07:02:56;;;;;;;1.42;0.60;;;3.60;92.50;;;;;;5135171;28;20069;-75
2022/12/27 07:05:22;;;;;;;1.75;0.68;;;3.60;92.50;;;;;;5116758;28;20046;-75
2022/12/27 07:07:48;;;;;;;1.75;0.75;;;3.50;92.50;;;;;;5135375;28;20432;-75
2022/12/27 07:10:13;;;;;;;3.53;0.82;;;3.50;92.50;;;;;;5099801;28;20394;-75
2022/12/27 07:12:39;;;;;;;0.75;0.65;;;3.50;92.60;;;;;;5135078;28;20035;-75
2022/12/27 07:15:05;;;;;;;1.42;0.70;;;3.50;92.60;;;;;;5117278;28;20063;-75
2022/12/27 07:17:33;;;;;;;1.00;0.70;;;3.50;92.60;;;;;;5116907;28;20138;-75
2022/12/27 07:19:58;;;;;;;1.02;0.60;;;3.50;92.60;;;;;;5135504;28;20063;-75
2022/12/27 07:22:25;;;;;;;1.08;0.57;;;3.50;92.60;;;;;;5135032;28;20031;-75
2022/12/27 07:24:50;;;;;;;2.20;0.60;;;3.50;92.60;;;;;;5082829;28;20082;-75
2022/12/27 07:27:16;;;;;;;1.30;0.68;;;3.50;92.60;;;;;;5081488;28;20035;-75
2022/12/27 07:29:42;;;;;;;0.95;0.70;;;3.50;92.60;;;;;;5099562;28;20046;-75
2022/12/27 07:32:07;;;;;;;0.85;0.60;;;3.50;92.60;;;;;;5134854;28;20437;-75
2022/12/27 07:34:33;;;;;;;1.20;0.68;;;3.50;92.60;;;;;;5099511;28;20075;-76
2022/12/27 07:36:58;;;;;;;0.85;0.40;;;3.50;92.60;;;;;;5135392;28;20050;-75
2022/12/27 07:39:24;;;;;;;1.38;0.82;;;3.50;92.60;;;;;;5099525;28;20049;-75
2022/12/27 07:41:50;;;;;;;1.52;1.00;;;3.50;92.60;;;;;;5134761;28;20042;-75
2022/12/27 07:44:16;;;;;;;2.28;0.80;;;3.50;92.60;;;;;;5099342;28;20493;-75
2022/12/27 07:46:41;;;;;;;1.77;1.00;;;3.60;92.60;;;;;;5099079;28;20043;-75
2022/12/27 07:49:09;;;;;;;2.00;1.00;;;3.60;92.60;;;;;;5134770;28;20126;-75
2022/12/27 07:51:35;;;;;;;2.00;1.10;;;3.60;92.60;;;;;;5116456;28;20043;-75
2022/12/27 07:54:00;;;;;;;2.00;1.02;;;3.60;92.60;;;;;;5116573;28;20455;-76
2022/12/27 07:56:28;;;;;;;1.13;0.70;;;3.70;92.60;;;;;;5099032;28;20039;-76
2022/12/27 07:58:56;;;;;;;1.20;0.70;;;3.60;92.50;;;;;;5099069;28;20515;-75
2022/12/27 08:01:23;;;;;;;1.60;0.85;;;3.60;92.50;;;;;;5134381;28;20071;-75
2022/12/27 08:03:49;;;;;;;1.33;1.00;;;3.60;92.50;;;;;;5116341;28;20042;-75
2022/12/27 08:06:21;;;;;;;3.25;1.40;;;3.60;92.50;;;;;;5134920;28;20043;-75
2022/12/27 08:08:47;;;;;;;2.25;1.20;;;3.60;92.60;;;;;;5116080;28;20130;-75
2022/12/27 08:11:13;;;;;;;2.13;1.30;;;3.60;92.50;;;;;;5115870;28;20379;-75
2022/12/27 08:13:39;;;;;;;2.70;1.17;;;3.70;92.60;;;;;;5115938;28;20092;-75
2022/12/27 08:16:06;;;;;;;3.30;1.52;;;3.60;92.80;;;;;;5098936;28;20046;-75
2022/12/27 08:18:31;;;;;;;1.73;1.00;;;3.70;92.60;;;;;;5115681;28;20035;-75
2022/12/27 08:20:57;;;;;;;1.83;0.90;;;3.70;92.60;;;;;;5115768;28;20554;-75
2022/12/27 08:23:23;;;;;;;2.50;1.05;;;3.70;92.50;;;;;;5134366;28;20035;-75
2022/12/27 08:25:48;;;;;;;2.13;1.10;;;3.70;92.50;;;;;;5115760;28;20050;-75
2022/12/27 08:28:16;;;;;;;3.05;1.20;;;3.70;92.60;;;;;;5115464;28;20053;-75
2022/12/27 08:30:43;;;;;;;2.83;1.20;;;3.70;92.60;;;;;;5134510;28;20069;-75
2022/12/27 08:33:10;;;;;;;3.30;1.02;;;3.70;92.50;;;;;;5133749;28;20082;-75
2022/12/27 08:35:40;;;;;;;1.52;1.15;;;3.70;92.50;;;;;;5133848;28;20508;-75
2022/12/27 08:38:07;;;;;;;2.35;1.08;;;3.80;92.60;;;;;;5115038;28;20039;-75
2022/12/27 08:40:32;;;;;;;1.30;0.95;;;3.80;92.50;;;;;;5115677;28;20031;-74
2022/12/27 08:42:59;;;;;;;2.45;1.35;;;3.80;92.60;;;;;;5115212;28;20043;-74
2022/12/27 08:45:24;;;;;;;1.48;0.90;;;3.80;92.60;;;;;;5134174;28;20038;-74
2022/12/27 08:47:50;;;;;;;1.60;1.00;;;3.80;92.60;;;;;;5098138;28;20482;-74
2022/12/27 08:50:16;;;;;;;1.10;0.80;;;3.80;92.60;;;;;;5133744;28;20042;-74
2022/12/27 08:52:42;;;;;;;2.45;1.20;;;3.80;92.60;;;;;;5133585;28;20443;-74
2022/12/27 08:55:08;;;;;;;4.63;1.40;;;3.80;92.60;;;;;;5115011;28;20070;-74
2022/12/27 08:57:33;;;;;;;2.00;1.10;;;3.90;92.50;;;;;;5098180;28;20516;-74
2022/12/27 08:59:59;;;;;;;2.25;1.23;;;3.90;92.50;;;;;;5133514;28;20054;-74
2022/12/27 09:02:25;;;;;;;2.45;1.23;;;3.90;92.50;;;;;;5097981;28;20439;-75
2022/12/27 09:04:50;;;;;;;2.83;1.13;;;4.00;92.50;;;;;;5115019;28;20543;-74
2022/12/27 09:07:16;;;;;;;1.83;1.05;;;3.90;92.50;;;;;;5133488;28;20080;-74
2022/12/27 09:09:41;;;;;;;2.55;1.20;;;4.00;92.50;;;;;;5115097;28;20043;-74
2022/12/27 09:12:07;;;;;;;2.90;1.20;;;3.90;92.50;;;;;;5133347;28;20047;-74
2022/12/27 09:14:33;;;;;;;4.55;1.25;;;4.10;92.60;;;;;;5115292;28;20500;-74
2022/12/27 09:16:58;;;;;;;2.17;1.10;;;4.00;92.50;;;;;;5115516;28;20482;-74
2022/12/27 09:19:24;;;;;;;3.85;1.40;;;4.00;92.50;;;;;;5133769;28;20036;-74
2022/12/27 09:21:50;;;;;;;2.55;1.40;;;4.10;92.60;;;;;;5133308;28;20091;-75
2022/12/27 09:24:15;;;;;;;1.83;1.20;;;4.00;92.50;;;;;;5133282;28;20180;-74
2022/12/27 09:26:41;;;;;;;3.03;1.30;;;4.10;92.50;;;;;;5133569;28;20035;-74
2022/12/27 09:29:07;;;;;;;3.58;1.23;;;4.10;92.50;;;;;;5133618;28;20382;-74
2022/12/27 09:31:32;;;;;;;2.95;1.30;;;4.20;92.50;;;;;;5133274;28;20031;-74
2022/12/27 09:33:58;;;;;;;3.30;1.30;;;4.20;92.50;;;;;;5114692;28;20047;-74
2022/12/27 09:36:27;;;;;;;1.67;1.05;;;4.20;92.50;;;;;;5097894;28;20101;-74
2022/12/27 09:38:54;;;;;;;2.30;1.20;;;4.20;92.50;;;;;;5133228;28;20054;-75
2022/12/27 09:41:40;;;;;;;2.72;1.30;;;4.30;92.50;;;;;;5097813;28;20095;-74
2022/12/27 09:44:16;;;;;;;1.90;1.20;;;4.30;92.50;;;;;;5132888;28;20266;-75
2022/12/27 09:46:48;;;;;;;2.88;1.40;;;4.40;92.40;;;;;;5133299;28;20130;-74
2022/12/27 09:49:22;;;;;;;2.70;1.23;;;4.40;92.40;;;;;;5132832;27;20471;-74
2022/12/27 09:51:55;;;;;;;1.88;1.17;;;4.50;92.40;;;;;;5136459;28;20075;-75
2022/12/27 09:54:27;;;;;;;1.88;1.10;;;4.60;92.40;;;;;;5117965;28;20111;-74
2022/12/27 09:56:54;;;;;;;2.58;1.30;;;4.50;92.30;;;;;;5136403;28;20128;-74
2022/12/27 09:59:29;;;;;;;3.45;1.20;;;4.60;92.30;;;;;;5101065;28;20039;-74
2022/12/27 10:01:55;;;;;;;2.08;1.08;;;4.60;92.30;;;;;;5117829;28;20035;-75
2022/12/27 10:04:20;;;;;;;1.10;0.98;;;4.60;92.30;;;;;;5100936;28;20092;-74
2022/12/27 10:07:08;;;;;;;2.67;1.20;;;4.60;92.30;;;;;;5100771;28;20046;-75
2022/12/27 10:09:49;;;;;;;2.75;1.20;;;4.70;92.30;;;;;;5100783;28;20046;-74
2022/12/27 10:12:49;;;;;;;2.53;1.13;;;4.70;92.30;;;;;;5117724;28;20108;-74
2022/12/27 10:15:25;;;;;;;2.78;1.40;;;4.70;92.30;;;;;;5136176;28;20042;-75
2022/12/27 10:18:05;;;;;;;2.85;1.45;;;4.70;92.30;;;;;;5118349;28;20398;-74
2022/12/27 10:20:52;;;;;;;2.42;1.20;;;4.80;92.30;;;;;;5117609;28;20039;-74
2022/12/27 10:23:24;;;;;;;3.58;1.42;;;4.80;92.30;;;;;;5117379;28;20096;-74
2022/12/27 10:25:58;;;;;;;3.08;1.83;;;4.90;92.30;;;;;;5135982;28;20043;-75
2022/12/27 10:28:33;;;;;;;2.90;1.63;;;4.90;92.20;;;;;;5135994;28;20447;-74
2022/12/27 10:31:02;;;;;;;4.35;1.60;;;5.00;92.20;;;;;;5135992;28;20171;-74
2022/12/27 10:33:31;;;;;;;6.90;1.80;;;5.10;92.20;;;;;;5117295;28;20043;-75
2022/12/27 10:35:57;;;;;;;3.03;1.60;;;5.20;92.20;;;;;;5117654;28;20051;-75
2022/12/27 10:38:24;;;;;;;4.68;1.90;;;5.20;92.10;;;;;;5100390;28;20076;-75
2022/12/27 10:41:15;;;;;;;4.03;2.25;;;5.20;92.10;;;;;;5100413;28;20031;-75
2022/12/27 10:43:43;;;;;;;3.17;1.73;;;5.20;92.10;;;;;;5100376;28;20043;-75
2022/12/27 10:46:20;;;;;;;3.78;2.10;;;5.30;92.30;;;;;;5117705;28;20065;-75
2022/12/27 10:49:06;;;;;;;4.63;2.17;;;5.30;92.10;;;;;;5083785;28;20431;-75
2022/12/27 10:51:36;;;;;;;3.13;1.80;;;5.50;92.10;;;;;;5117474;28;20120;-75
2022/12/27 10:54:10;;;;;;;5.65;2.25;;;5.40;92.00;;;;;;5117176;28;20051;-75
2022/12/27 10:56:40;;;;;;;2.63;1.63;;;5.50;92.00;;;;;;5135160;28;20047;-75
2022/12/27 10:59:18;;;;;;;3.63;1.92;;;5.50;92.00;;;;;;5135055;28;20122;-75
2022/12/27 11:01:48;;;;;;;3.45;1.80;;;5.50;92.00;;;;;;5116826;28;20042;-75
2022/12/27 11:04:17;;;;;;;4.45;1.95;;;5.60;92.10;;;;;;5117100;28;20505;-75
2022/12/27 11:06:45;;;;;;;5.60;2.00;;;5.60;92.00;;;;;;5117513;28;20046;-74
2022/12/27 11:09:34;;;;;;;4.40;2.00;;;5.70;92.00;;;;;;5099788;28;20043;-74
2022/12/27 11:12:20;;;;;;;4.90;2.13;;;5.70;92.00;;;;;;5135464;28;20124;-74
2022/12/27 11:15:18;;;;;;;4.18;2.13;;;5.70;92.00;;;;;;5135251;28;20043;-75
2022/12/27 11:17:48;;;;;;;4.28;1.80;;;5.80;92.00;;;;;;5135049;28;20058;-74
2022/12/27 11:20:22;;;;;;;4.20;2.08;;;5.80;92.00;;;;;;5099763;28;20032;-76
2022/12/27 11:22:52;;;;;;;3.58;2.10;;;5.90;92.00;;;;;;5116495;28;20050;-74
2022/12/27 11:25:19;;;;;;;2.70;1.70;;;5.90;92.00;;;;;;5099995;28;20039;-74
2022/12/27 11:27:55;;;;;;;2.42;1.80;;;6.00;92.00;;;;;;5082788;28;20035;-75
2022/12/27 11:30:28;;;;;;;3.78;1.60;;;6.00;91.90;;;;;;5116448;28;20403;-75
2022/12/27 11:32:55;;;;;;;3.58;1.70;;;6.10;91.90;;;;;;5099260;28;20042;-75
2022/12/27 11:35:22;;;;;;;2.70;1.70;;;6.10;91.90;;;;;;5116358;28;20043;-74
2022/12/27 11:37:50;;;;;;;3.58;1.83;;;6.10;91.90;;;;;;5116212;28;20039;-75
2022/12/27 11:40:33;;;;;;;2.75;1.60;;;6.20;91.80;;;;;;5134947;28;20501;-74
2022/12/27 11:43:07;;;;;;;3.08;1.70;;;6.20;91.80;;;;;;5100834;28;20035;-74
2022/12/27 11:45:39;;;;;;;2.85;1.60;;;6.20;91.80;;;;;;5116532;28;20035;-75
2022/12/27 11:48:29;;;;;;;2.60;1.60;;;6.30;91.80;;;;;;5135074;28;20050;-75
2022/12/27 11:51:24;;;;;;;4.15;1.60;;;6.30;91.80;;;;;;5083302;28;20067;-75
2022/12/27 11:54:20;;;;;;;3.25;1.50;;;6.30;91.80;;;;;;5116174;28;20043;-77
2022/12/27 11:56:52;;;;;;;2.40;1.50;;;6.40;91.80;;;;;;5100893;28;20035;-76
2022/12/27 11:59:28;;;;;;;3.42;1.58;;;6.50;91.80;;;;;;5116867;28;20046;-75
2022/12/27 12:02:31;;;;;;;2.97;1.20;;;6.60;91.80;;;;;;5134464;28;20045;-75
2022/12/27 12:05:13;;;;;;;2.95;1.27;;;6.70;91.70;;;;;;5116004;28;20047;-75
2022/12/27 12:08:10;;;;;;;2.20;1.17;;;6.80;91.70;;;;;;5083475;28;20473;-75
2022/12/27 12:10:54;;;;;;;3.55;1.17;;;6.80;91.60;;;;;;5115621;28;20047;-75
2022/12/27 12:13:52;;;;;;;3.58;1.20;;;7.00;91.50;;;;;;5099290;28;20122;-75
2022/12/27 12:16:45;;;;;;;3.17;1.30;;;7.10;91.50;;;;;;5114001;28;20039;-76
2022/12/27 12:19:32;;;;;;;2.20;1.20;;;7.20;91.30;;;;;;5085813;28;20977;-75
2022/12/27 12:22:24;;;;;;;2.35;1.17;;;7.30;91.40;;;;;;5117517;28;20042;-76
2022/12/27 12:25:06;;;;;;;4.47;1.25;;;7.30;91.30;;;;;;5116016;28;20067;-76
2022/12/27 12:27:53;;;;;;;1.98;1.30;;;7.40;91.30;;;;;;5133951;28;20043;-76
2022/12/27 12:30:54;;;;;;;2.67;1.20;;;7.60;91.20;;;;;;5133733;28;20043;-76
2022/12/27 12:33:45;;;;;;;3.55;1.30;;;7.60;91.10;;;;;;5133869;28;20047;-76
2022/12/27 12:36:44;;;;;;;1.98;1.20;;;7.80;91.10;;;;;;5085232;28;20039;-76
2022/12/27 12:39:41;;;;;;;2.47;1.15;;;7.80;91.00;;;;;;5133809;28;20103;-76
2022/12/27 12:42:18;;;;;;;3.65;1.17;;;7.90;91.00;;;;;;5103128;28;20061;-76
2022/12/27 12:44:58;;;;;;;2.25;1.30;;;8.00;90.90;;;;;;5115900;28;21406;-77
2022/12/27 12:47:55;;;;;;;4.28;1.50;;;7.90;90.80;;;;;;5133621;28;20054;-76
2022/12/27 12:50:31;;;;;;;3.97;1.25;;;8.00;90.90;;;;;;5133544;28;20066;-76
2022/12/27 12:53:24;;;;;;;2.78;1.45;;;7.80;90.90;;;;;;5116431;28;20090;-74
2022/12/27 12:56:08;;;;;;;2.88;1.23;;;7.80;91.00;;;;;;5134264;28;20039;-75
2022/12/27 12:58:51;;;;;;;2.72;1.08;;;7.70;91.10;;;;;;5115313;28;20035;-76
2022/12/27 13:01:43;;;;;;;1.75;1.10;;;7.60;91.10;;;;;;5082248;28;20035;-75
2022/12/27 13:04:17;;;;;;;;;;;7.60;91.20;;;;;;5098745;28;20039;-76
2022/12/27 13:06:59;;;;;;;3.75;1.38;;;7.50;91.20;;;;;;5097036;28;20010;-75
2022/12/27 13:09:51;;;;;;;2.33;0.95;;;7.40;91.20;;;;;;5098850;28;20492;-75
2022/12/27 13:12:34;;;;;;;1.73;1.15;;;7.40;91.30;;;;;;5119492;28;20051;-76
2022/12/27 13:15:22;;;;;;;2.45;0.90;;;7.40;91.40;;;;;;5132986;28;20054;-75
2022/12/27 13:18:17;;;;;;;3.55;1.20;;;7.30;91.40;;;;;;5115005;28;20126;-75
2022/12/27 13:21:10;;;;;;;3.13;1.00;;;7.30;91.40;;;;;;5133202;28;20398;-75
2022/12/27 13:24:11;;;;;;;1.83;0.98;;;7.30;91.40;;;;;;5114860;27;20043;-75
2022/12/27 13:26:52;;;;;;;2.10;1.20;;;7.30;91.40;;;;;;5117994;28;20039;-75
2022/12/27 13:29:33;;;;;;;1.17;0.75;;;7.30;91.50;;;;;;5137336;28;20050;-76
2022/12/27 13:32:10;;;;;;;2.70;1.10;;;7.30;91.50;;;;;;5119924;28;20050;-75
2022/12/27 13:34:52;;;;;;;1.42;0.82;;;7.40;91.50;;;;;;5118821;28;20043;-75
2022/12/27 13:37:51;;;;;;;2.10;0.88;;;7.50;91.50;;;;;;5101249;28;20050;-75
2022/12/27 13:40:49;;;;;;;2.90;1.08;;;7.60;91.40;;;;;;5123351;28;20038;-75
2022/12/27 13:43:52;;;;;;;3.13;1.30;;;7.70;91.30;;;;;;5137069;28;20046;-75
2022/12/27 13:46:52;;;;;;;1.65;1.00;;;7.80;91.20;;;;;;5136369;28;20053;-75
2022/12/27 13:49:52;;;;;;;3.95;1.52;;;7.70;91.10;;;;;;5136490;28;20036;-75
2022/12/27 13:52:53;;;;;;;2.00;1.10;;;7.80;91.10;;;;;;5136448;28;20057;-75
2022/12/27 13:55:52;;;;;;;1.42;0.90;;;7.70;91.20;;;;;;5103792;28;20043;-75
2022/12/27 13:58:52;;;;;;;3.03;1.13;;;7.70;91.20;;;;;;5103351;28;20406;-75
2022/12/27 14:01:40;;;;;;;2.45;1.30;;;7.70;91.20;;;;;;5123462;28;20039;-75
2022/12/27 14:04:36;;;;;;;3.00;1.45;;;7.80;91.20;;;;;;5102660;28;20544;-74
2022/12/27 14:07:37;;;;;;;2.08;1.20;;;7.60;91.20;;;;;;5117940;28;20366;-75
2022/12/27 14:10:30;;;;;;;2.08;1.10;;;7.60;91.30;;;;;;5103647;28;20067;-76
2022/12/27 14:13:02;;;;;;;2.13;0.80;;;7.60;91.30;;;;;;5118015;28;20043;-76
2022/12/27 14:15:58;;;;;;;1.08;0.77;;;7.60;91.30;;;;;;5084123;28;20042;-76
2022/12/27 14:18:48;;;;;;;1.83;1.10;;;7.50;91.30;;;;;;5100614;28;20038;-76
2022/12/27 14:21:53;;;;;;;4.03;1.92;;;7.50;91.30;;;;;;5103148;28;20045;-76
2022/12/27 14:24:56;;;;;;;2.88;1.67;;;7.50;91.40;;;;;;5103370;28;20043;-76
2022/12/27 14:27:54;;;;;;;3.58;2.00;;;7.50;91.40;;;;;;5123705;28;20035;-76
2022/12/27 14:30:34;;;;;;;2.83;1.55;;;7.40;91.40;;;;;;5117276;28;20038;-75
2022/12/27 14:33:36;;;;;;;2.03;1.45;;;7.50;91.40;;;;;;5102132;28;20513;-75
2022/12/27 14:36:38;;;;;;;3.28;1.33;;;7.40;91.70;;;;;;5117066;28;20130;-75
2022/12/27 14:39:35;;;;;;;2.63;1.42;;;7.40;91.50;;;;;;5117427;28;20478;-75
2022/12/27 14:42:35;;;;;;;2.35;1.45;;;7.30;91.50;;;;;;5136330;28;20047;-77
2022/12/27 14:45:35;;;;;;;3.67;1.48;;;7.30;91.50;;;;;;5117484;28;20039;-75
2022/12/27 14:48:26;;;;;;;2.15;1.10;;;7.30;91.50;;;;;;5117163;28;20135;-74
2022/12/27 14:51:24;;;;;;;2.13;1.30;;;7.30;91.50;;;;;;5135436;28;20521;-76
2022/12/27 14:54:16;;;;;;;2.42;1.10;;;7.20;91.80;;;;;;5102937;28;20207;-76
2022/12/27 14:57:10;;;;;;;1.75;1.00;;;7.20;91.50;;;;;;5117147;28;20046;-76
2022/12/27 14:59:56;;;;;;;1.88;1.10;;;7.20;91.50;;;;;;5121980;28;20085;-75
2022/12/27 15:02:39;;;;;;;1.88;1.00;;;7.30;91.50;;;;;;5102055;28;20043;-76
2022/12/27 15:05:27;;;;;;;3.72;1.00;;;7.30;91.60;;;;;;5117044;28;20039;-75
2022/12/27 15:08:18;;;;;;;2.55;1.00;;;7.30;91.60;;;;;;5102055;28;20066;-75
2022/12/27 15:10:59;;;;;;;1.95;0.90;;;7.20;91.50;;;;;;5119263;28;20047;-74
2022/12/27 15:13:53;;;;;;;1.40;0.98;;;7.20;91.50;;;;;;5116795;28;20035;-74
2022/12/27 15:16:44;;;;;;;1.50;0.90;;;7.20;91.80;;;;;;5101419;28;20045;-74
2022/12/27 15:19:34;;;;;;;1.08;0.85;;;7.20;91.50;;;;;;5116712;28;20035;-75